Time;durP1;ratioP1;P1;durP2;ratioP2;P2;SDS_P1;SDS_P2;PMS_P1;PMS_P2;Temp;Humidity;BMP_temperature;BMP_pressure;BME280_temperature;BME280_humidity;BME280_pressure;Samples;Min_cycle;Max_cycle;Signal;HPM_P1;HPM_P2
2022/06/21 00:00:13;;;;;;;9.93;3.60;;;15.40;75.20;;;;;;5011960;28;20484;-75
2022/06/21 00:02:39;;;;;;;8.27;4.00;;;15.40;75.50;;;;;;5013207;28;20628;-75
2022/06/21 00:05:06;;;;;;;8.50;3.38;;;15.30;75.50;;;;;;5006636;28;20037;-75
2022/06/21 00:07:32;;;;;;;9.48;4.20;;;15.30;75.60;;;;;;5009771;28;20025;-75
2022/06/21 00:09:59;;;;;;;10.75;4.20;;;15.20;75.70;;;;;;5009707;28;20388;-76
2022/06/21 00:12:24;;;;;;;7.65;3.60;;;15.20;75.80;;;;;;5009942;28;20081;-75
2022/06/21 00:14:50;;;;;;;7.80;3.33;;;15.20;76.00;;;;;;5004726;28;20120;-76
2022/06/21 00:17:19;;;;;;;6.30;3.13;;;15.20;76.10;;;;;;4990166;28;20033;-75
2022/06/21 00:19:45;;;;;;;8.90;3.85;;;15.10;76.20;;;;;;5007061;28;20029;-75
2022/06/21 00:22:15;;;;;;;9.90;3.88;;;15.10;76.30;;;;;;5008338;28;20559;-75
2022/06/21 00:24:41;;;;;;;10.25;4.00;;;15.10;76.40;;;;;;5008300;28;20045;-75
2022/06/21 00:27:19;;;;;;;10.48;4.18;;;15.10;76.50;;;;;;5008700;28;20033;-75
2022/06/21 00:29:45;;;;;;;12.52;3.50;;;15.10;76.50;;;;;;5005942;28;20523;-74
2022/06/21 00:32:16;;;;;;;8.90;3.58;;;15.00;76.50;;;;;;5008861;28;20049;-76
2022/06/21 00:34:43;;;;;;;9.40;4.15;;;15.00;76.60;;;;;;5008672;28;20085;-75
2022/06/21 00:37:17;;;;;;;10.38;3.40;;;15.00;76.80;;;;;;5009454;28;20120;-75
2022/06/21 00:39:43;;;;;;;8.70;3.13;;;15.00;76.80;;;;;;5013672;28;20026;-75
2022/06/21 00:42:28;;;;;;;9.25;3.55;;;14.90;76.80;;;;;;5015902;28;20315;-75
2022/06/21 00:44:59;;;;;;;7.40;3.30;;;14.90;77.20;;;;;;5015203;28;20577;-75
2022/06/21 00:47:32;;;;;;;11.50;3.92;;;14.90;77.20;;;;;;5015765;28;20038;-74
2022/06/21 00:50:01;;;;;;;12.85;3.78;;;14.90;77.40;;;;;;5015926;28;20072;-75
2022/06/21 00:52:47;;;;;;;10.63;3.65;;;14.90;77.60;;;;;;5015001;28;20476;-75
2022/06/21 00:55:33;;;;;;;9.73;3.28;;;14.90;77.90;;;;;;5015243;28;20018;-75
2022/06/21 00:58:00;;;;;;;8.55;3.60;;;14.80;77.60;;;;;;5015683;28;20063;-74
2022/06/21 01:00:29;;;;;;;5.65;2.97;;;14.80;77.60;;;;;;5012831;28;20018;-75
2022/06/21 01:02:57;;;;;;;8.55;2.70;;;14.80;77.80;;;;;;5014440;28;20141;-75
2022/06/21 01:05:27;;;;;;;9.57;3.40;;;14.80;78.10;;;;;;5015260;28;20072;-75
2022/06/21 01:07:55;;;;;;;8.20;3.60;;;14.80;78.40;;;;;;5015197;28;20102;-75
2022/06/21 01:10:23;;;;;;;8.50;3.50;;;14.80;78.40;;;;;;5015276;28;20029;-75
2022/06/21 01:12:54;;;;;;;8.30;3.20;;;14.80;78.50;;;;;;5014319;28;20032;-75
2022/06/21 01:15:27;;;;;;;8.23;3.25;;;14.70;78.50;;;;;;4997418;28;20044;-74
2022/06/21 01:17:57;;;;;;;7.72;2.70;;;14.70;78.40;;;;;;5015187;28;20362;-75
2022/06/21 01:20:24;;;;;;;;;;;14.70;78.40;;;;;;4998371;28;20468;-74
2022/06/21 01:23:21;;;;;;;5.53;2.60;;;14.80;78.40;;;;;;5015447;28;19948;-75
2022/06/21 01:26:20;;;;;;;8.25;3.58;;;14.70;78.40;;;;;;5015222;28;20040;-75
2022/06/21 01:28:46;;;;;;;10.38;3.42;;;14.60;78.60;;;;;;4980262;28;20496;-75
2022/06/21 01:31:12;;;;;;;8.57;3.05;;;14.60;78.80;;;;;;5014375;28;20057;-75
2022/06/21 01:33:40;;;;;;;9.77;3.75;;;14.60;78.90;;;;;;5015061;28;20459;-76
2022/06/21 01:36:19;;;;;;;9.35;3.45;;;14.60;79.00;;;;;;5014725;28;20050;-75
2022/06/21 01:39:07;;;;;;;8.98;3.05;;;14.60;79.10;;;;;;5015362;28;20041;-75
2022/06/21 01:42:11;;;;;;;8.90;2.92;;;14.50;79.00;;;;;;4997184;28;20022;-76
2022/06/21 01:44:44;;;;;;;8.88;2.88;;;14.50;79.20;;;;;;5011997;28;20048;-76
2022/06/21 01:47:15;;;;;;;6.63;2.72;;;14.50;79.50;;;;;;5010893;28;20068;-74
2022/06/21 01:49:55;;;;;;;10.38;3.33;;;14.50;79.70;;;;;;5013227;28;20118;-76
2022/06/21 01:52:24;;;;;;;12.32;3.30;;;14.50;79.60;;;;;;5011610;28;20042;-75
2022/06/21 01:55:02;;;;;;;9.20;3.15;;;14.50;79.70;;;;;;5011815;28;20555;-75
2022/06/21 01:57:29;;;;;;;10.88;2.97;;;14.50;79.80;;;;;;5011299;28;20184;-74
2022/06/21 01:59:58;;;;;;;8.85;3.22;;;14.40;79.90;;;;;;5010739;28;20025;-75
2022/06/21 02:02:29;;;;;;;9.53;3.23;;;14.40;80.00;;;;;;5011810;28;20022;-75
2022/06/21 02:04:58;;;;;;;9.52;2.80;;;14.40;80.10;;;;;;5011772;28;20026;-75
2022/06/21 02:07:31;;;;;;;7.90;2.83;;;14.40;80.30;;;;;;5005799;28;20045;-75
2022/06/21 02:10:03;;;;;;;9.85;3.17;;;14.40;80.20;;;;;;5006434;28;20053;-75
2022/06/21 02:12:31;;;;;;;8.10;3.33;;;14.40;80.20;;;;;;5011426;28;20455;-76
2022/06/21 02:15:00;;;;;;;8.73;2.92;;;14.40;80.10;;;;;;5011437;28;20029;-75
2022/06/21 02:17:38;;;;;;;10.32;3.55;;;14.40;80.00;;;;;;5011341;28;20025;-75
2022/06/21 02:20:26;;;;;;;8.63;2.60;;;14.40;80.20;;;;;;5010200;28;20714;-75
2022/06/21 02:22:52;;;;;;;8.88;2.50;;;14.40;80.60;;;;;;4993695;28;20025;-74
2022/06/21 02:25:22;;;;;;;9.45;3.13;;;14.30;80.70;;;;;;5013143;28;20511;-76
2022/06/21 02:27:49;;;;;;;6.57;2.38;;;14.30;80.70;;;;;;5013181;28;20022;-75
2022/06/21 02:30:19;;;;;;;8.68;2.92;;;14.40;80.80;;;;;;5018821;28;20036;-75
2022/06/21 02:32:45;;;;;;;9.65;2.90;;;14.30;80.90;;;;;;5013166;28;20050;-74
2022/06/21 02:35:35;;;;;;;10.73;3.22;;;14.30;81.00;;;;;;5005646;28;20027;-74
2022/06/21 02:38:05;;;;;;;10.88;3.08;;;14.30;81.20;;;;;;4998070;28;20394;-75
2022/06/21 02:41:11;;;;;;;6.00;2.80;;;14.20;81.00;;;;;;5010696;28;20034;-75
2022/06/21 02:43:51;;;;;;;9.85;3.15;;;14.20;81.30;;;;;;5009815;28;20026;-75
2022/06/21 02:46:24;;;;;;;8.25;2.95;;;14.10;81.30;;;;;;5011242;28;20113;-75
2022/06/21 02:48:58;;;;;;;7.00;2.80;;;14.10;81.60;;;;;;5010579;28;20033;-74
2022/06/21 02:51:32;;;;;;;8.95;3.45;;;14.10;81.60;;;;;;5009640;28;20026;-75
2022/06/21 02:54:11;;;;;;;9.45;3.03;;;14.10;81.70;;;;;;5011077;28;20475;-75
2022/06/21 02:56:45;;;;;;;12.55;3.03;;;14.10;81.80;;;;;;5010887;28;20026;-76
2022/06/21 02:59:13;;;;;;;9.95;2.92;;;14.10;81.90;;;;;;5010501;28;20117;-75
2022/06/21 03:01:49;;;;;;;6.65;2.72;;;14.00;82.40;;;;;;5009481;28;20431;-75
2022/06/21 03:04:22;;;;;;;7.32;3.17;;;14.00;81.80;;;;;;5008878;28;20038;-74
2022/06/21 03:06:49;;;;;;;10.10;3.35;;;14.00;81.50;;;;;;5010068;28;20480;-75
2022/06/21 03:09:20;;;;;;;9.85;3.20;;;14.00;81.60;;;;;;5010642;28;20489;-75
2022/06/21 03:11:50;;;;;;;7.75;3.72;;;14.00;81.60;;;;;;5010253;28;20030;-75
2022/06/21 03:14:19;;;;;;;10.85;4.00;;;14.00;81.60;;;;;;5009744;28;20026;-75
2022/06/21 03:16:45;;;;;;;10.48;3.55;;;14.00;81.60;;;;;;5007763;28;20049;-74
2022/06/21 03:19:25;;;;;;;8.27;2.92;;;13.90;81.60;;;;;;5009572;28;20097;-75
2022/06/21 03:21:51;;;;;;;9.68;3.47;;;13.90;81.90;;;;;;4982788;28;20508;-75
2022/06/21 03:24:22;;;;;;;9.55;3.80;;;13.90;82.10;;;;;;5010229;28;20133;-74
2022/06/21 03:27:03;;;;;;;9.02;3.63;;;13.90;82.40;;;;;;5009588;28;20053;-75
2022/06/21 03:29:30;;;;;;;10.73;4.93;;;13.90;82.40;;;;;;5009505;28;20022;-74
2022/06/21 03:31:59;;;;;;;9.18;3.83;;;13.90;82.60;;;;;;5009330;28;20034;-74
2022/06/21 03:34:26;;;;;;;12.35;4.72;;;13.80;82.80;;;;;;5009368;28;20167;-75
2022/06/21 03:36:52;;;;;;;9.40;3.08;;;13.80;82.80;;;;;;5009211;28;20049;-75
2022/06/21 03:39:19;;;;;;;9.65;4.05;;;13.80;82.80;;;;;;4991501;28;20030;-75
2022/06/21 03:41:48;;;;;;;7.55;3.42;;;13.80;83.20;;;;;;5008600;28;20085;-76
2022/06/21 03:44:28;;;;;;;9.90;4.32;;;13.80;83.40;;;;;;5009159;28;20464;-74
2022/06/21 03:47:18;;;;;;;8.20;3.40;;;13.90;83.40;;;;;;5007950;28;20096;-75
2022/06/21 03:49:53;;;;;;;10.25;3.17;;;13.90;83.30;;;;;;5009391;28;20060;-74
2022/06/21 03:52:43;;;;;;;9.07;4.28;;;13.90;83.40;;;;;;5006009;28;20018;-75
2022/06/21 03:55:21;;;;;;;12.60;4.28;;;14.00;83.70;;;;;;5008944;28;20448;-74
2022/06/21 03:58:08;;;;;;;7.95;3.70;;;14.00;83.70;;;;;;5009663;28;20065;-74
2022/06/21 04:01:05;;;;;;;10.50;3.83;;;14.00;83.70;;;;;;5009077;28;20388;-75
2022/06/21 04:03:38;;;;;;;12.30;3.83;;;14.10;83.70;;;;;;5002392;28;20699;-74
2022/06/21 04:06:17;;;;;;;13.25;3.45;;;14.10;83.70;;;;;;4990863;28;20036;-74
2022/06/21 04:08:49;;;;;;;10.45;2.90;;;14.10;83.50;;;;;;5009042;28;20191;-74
2022/06/21 04:11:22;;;;;;;11.52;3.50;;;14.10;83.20;;;;;;4991227;28;20100;-75
2022/06/21 04:13:53;;;;;;;11.18;2.95;;;14.20;83.60;;;;;;5008662;28;20087;-74
2022/06/21 04:16:35;;;;;;;8.98;3.10;;;14.20;83.60;;;;;;5008005;28;20022;-75
2022/06/21 04:19:06;;;;;;;6.28;2.60;;;14.20;83.50;;;;;;5008551;28;20026;-75
2022/06/21 04:21:38;;;;;;;9.32;2.92;;;14.30;83.20;;;;;;5008637;28;20038;-75
2022/06/21 04:24:15;;;;;;;9.40;3.03;;;14.30;83.30;;;;;;5010852;28;20030;-73
2022/06/21 04:26:45;;;;;;;9.32;2.72;;;14.40;83.40;;;;;;5008521;28;20079;-75
2022/06/21 04:29:38;;;;;;;10.43;3.45;;;14.40;83.10;;;;;;5008663;28;20022;-74
2022/06/21 04:32:12;;;;;;;8.95;3.05;;;14.40;83.10;;;;;;5006277;28;20021;-75
2022/06/21 04:34:45;;;;;;;7.82;2.50;;;14.50;83.10;;;;;;5007677;28;20555;-75
2022/06/21 04:37:14;;;;;;;10.73;3.47;;;14.50;82.90;;;;;;5008316;28;20061;-74
2022/06/21 04:39:58;;;;;;;10.93;3.60;;;14.50;82.80;;;;;;5008041;28;20469;-75
2022/06/21 04:42:33;;;;;;;7.82;3.03;;;14.60;83.00;;;;;;5006563;28;20365;-74
2022/06/21 04:45:10;;;;;;;10.13;3.20;;;14.60;82.80;;;;;;5007034;28;20113;-75
2022/06/21 04:47:50;;;;;;;12.35;2.95;;;14.70;82.70;;;;;;4985139;28;20022;-74
2022/06/21 04:50:34;;;;;;;6.15;2.15;;;14.80;82.50;;;;;;5008608;28;20022;-74
2022/06/21 04:53:16;;;;;;;11.82;2.95;;;14.80;82.40;;;;;;5009992;28;20029;-75
2022/06/21 04:56:03;;;;;;;8.10;2.95;;;14.90;82.20;;;;;;5014593;28;20077;-74
2022/06/21 04:58:30;;;;;;;11.30;2.80;;;15.00;82.10;;;;;;5010023;28;20038;-74
2022/06/21 05:00:56;;;;;;;11.65;3.05;;;15.10;81.80;;;;;;5008785;28;20519;-75
2022/06/21 05:03:40;;;;;;;8.50;3.30;;;15.20;81.50;;;;;;5009663;28;20026;-75
2022/06/21 05:06:08;;;;;;;8.57;2.75;;;15.30;81.50;;;;;;5008991;28;20042;-74
2022/06/21 05:08:34;;;;;;;5.95;2.58;;;15.40;81.10;;;;;;5008220;28;20033;-75
2022/06/21 05:11:01;;;;;;;7.72;2.22;;;15.40;80.90;;;;;;5008374;28;20022;-75
2022/06/21 05:13:38;;;;;;;8.15;2.05;;;15.50;80.80;;;;;;5008519;28;20539;-75
2022/06/21 05:16:15;;;;;;;6.50;1.73;;;15.50;80.60;;;;;;5002624;28;20388;-74
2022/06/21 05:18:47;;;;;;;4.63;1.65;;;15.60;80.40;;;;;;5008427;28;20045;-75
2022/06/21 05:21:18;;;;;;;7.43;2.22;;;15.70;80.20;;;;;;5009026;28;20029;-75
2022/06/21 05:23:45;;;;;;;7.45;1.90;;;15.70;79.40;;;;;;5008070;28;20498;-73
2022/06/21 05:26:26;;;;;;;6.10;1.80;;;15.80;77.30;;;;;;5010258;28;20030;-74
2022/06/21 05:28:58;;;;;;;7.55;1.92;;;15.80;77.00;;;;;;4992900;28;20033;-74
2022/06/21 05:31:28;;;;;;;7.10;1.95;;;15.90;77.50;;;;;;4999953;28;20033;-75
2022/06/21 05:34:03;;;;;;;13.20;2.65;;;16.00;77.90;;;;;;4998662;28;20046;-73
2022/06/21 05:36:32;;;;;;;5.03;1.52;;;16.00;78.10;;;;;;5011198;28;20738;-74
2022/06/21 05:39:02;;;;;;;8.50;2.33;;;16.10;78.30;;;;;;5002471;28;20030;-74
2022/06/21 05:41:34;;;;;;;8.43;2.20;;;16.10;76.90;;;;;;5011605;28;20037;-74
2022/06/21 05:44:12;;;;;;;9.65;1.85;;;16.20;76.00;;;;;;5011523;28;20026;-74
2022/06/21 05:46:44;;;;;;;9.23;1.73;;;16.20;75.10;;;;;;5001618;28;20592;-74
2022/06/21 05:49:25;;;;;;;6.82;1.90;;;16.30;76.80;;;;;;5011365;28;20022;-73
2022/06/21 05:51:55;;;;;;;10.82;2.00;;;16.30;76.90;;;;;;4985542;28;20096;-73
2022/06/21 05:54:26;;;;;;;7.88;1.90;;;16.50;76.60;;;;;;5010869;28;20022;-73
2022/06/21 05:56:52;;;;;;;6.95;1.40;;;16.60;75.70;;;;;;5000003;28;20049;-75
2022/06/21 05:59:23;;;;;;;6.90;2.22;;;16.70;74.90;;;;;;5011368;28;20033;-73
2022/06/21 06:01:58;;;;;;;6.10;1.60;;;16.70;75.70;;;;;;5011328;28;20022;-74
2022/06/21 06:04:49;;;;;;;7.95;1.67;;;16.80;75.80;;;;;;4992634;28;20072;-74
2022/06/21 06:07:30;;;;;;;8.35;2.00;;;16.80;75.80;;;;;;5001092;28;20029;-73
2022/06/21 06:09:59;;;;;;;5.10;1.60;;;16.90;75.10;;;;;;5011337;28;20503;-74
2022/06/21 06:12:33;;;;;;;5.57;2.00;;;17.00;74.80;;;;;;4992931;28;20030;-74
2022/06/21 06:15:02;;;;;;;7.35;1.90;;;17.10;74.20;;;;;;5005798;28;20115;-75
2022/06/21 06:17:41;;;;;;;12.63;1.98;;;17.10;74.20;;;;;;5010010;28;20472;-72
2022/06/21 06:20:14;;;;;;;5.80;1.70;;;17.20;73.50;;;;;;5009013;28;20030;-73
2022/06/21 06:23:04;;;;;;;10.65;2.22;;;17.30;72.80;;;;;;5009759;28;20472;-72
2022/06/21 06:25:45;;;;;;;6.40;1.70;;;17.40;72.60;;;;;;4995079;28;20057;-74
2022/06/21 06:28:26;;;;;;;6.32;1.83;;;17.30;72.60;;;;;;5010860;28;20875;-74
2022/06/21 06:31:10;;;;;;;10.23;2.40;;;17.30;73.10;;;;;;4993393;28;20040;-73
2022/06/21 06:33:40;;;;;;;7.40;1.52;;;17.50;72.70;;;;;;5009621;28;20049;-72
2022/06/21 06:36:14;;;;;;;6.28;1.83;;;17.70;70.70;;;;;;5011159;28;20080;-74
2022/06/21 06:38:41;;;;;;;7.78;1.60;;;17.70;71.90;;;;;;5010174;28;20092;-74
2022/06/21 06:41:31;;;;;;;4.43;1.42;;;17.80;71.00;;;;;;5010629;28;20018;-74
2022/06/21 06:44:03;;;;;;;5.40;1.23;;;17.80;68.70;;;;;;5003314;28;20026;-74
2022/06/21 06:46:35;;;;;;;4.07;1.10;;;17.90;67.20;;;;;;5009971;28;20057;-75
2022/06/21 06:49:30;;;;;;;7.40;1.42;;;18.10;66.60;;;;;;5010502;28;20033;-74
2022/06/21 06:52:11;;;;;;;4.43;1.10;;;18.30;65.60;;;;;;5009996;28;20084;-73
2022/06/21 06:55:08;;;;;;;5.43;1.10;;;18.40;64.70;;;;;;4992753;28;20022;-73
2022/06/21 06:58:17;;;;;;;3.70;1.33;;;18.50;64.50;;;;;;5004473;28;20046;-75
2022/06/21 07:00:51;;;;;;;7.38;1.17;;;18.60;65.60;;;;;;4983562;28;20054;-75
2022/06/21 07:03:24;;;;;;;8.25;1.50;;;18.50;65.30;;;;;;5009219;28;20018;-74
2022/06/21 07:06:06;;;;;;;5.72;1.10;;;18.50;64.30;;;;;;5009808;28;20018;-74
2022/06/21 07:08:41;;;;;;;5.50;1.30;;;18.60;64.20;;;;;;4992812;28;20026;-73
2022/06/21 07:11:29;;;;;;;7.40;1.50;;;18.70;65.60;;;;;;5008837;28;20028;-72
2022/06/21 07:13:56;;;;;;;5.70;1.10;;;18.80;63.70;;;;;;5009494;28;20026;-73
2022/06/21 07:16:24;;;;;;;7.22;2.35;;;19.00;63.00;;;;;;5011299;28;20014;-73
2022/06/21 07:18:53;;;;;;;4.95;1.13;;;19.00;63.40;;;;;;5007972;28;20014;-73
2022/06/21 07:21:21;;;;;;;6.70;2.28;;;19.10;63.10;;;;;;5020819;28;20061;-74
2022/06/21 07:23:47;;;;;;;9.18;1.92;;;19.10;64.00;;;;;;5008617;28;20034;-73
2022/06/21 07:26:22;;;;;;;6.60;1.83;;;19.30;62.50;;;;;;5009357;28;20116;-74
2022/06/21 07:29:02;;;;;;;13.52;4.28;;;19.30;62.30;;;;;;5004780;28;20037;-72
2022/06/21 07:31:36;;;;;;;17.53;5.97;;;19.30;62.20;;;;;;5008064;28;20037;-73
2022/06/21 07:34:07;;;;;;;20.75;9.80;;;19.20;62.70;;;;;;5006920;28;20049;-73
2022/06/21 07:36:46;;;;;;;24.65;10.50;;;19.20;64.10;;;;;;5005743;28;20072;-74
2022/06/21 07:39:18;;;;;;;21.73;7.93;;;19.20;65.00;;;;;;4987803;28;20164;-74
2022/06/21 07:41:59;;;;;;;9.85;4.28;;;19.30;64.50;;;;;;5007361;28;20053;-73
2022/06/21 07:44:35;;;;;;;17.17;3.90;;;19.40;63.20;;;;;;5007194;28;20073;-74
2022/06/21 07:47:06;;;;;;;12.15;3.38;;;19.40;62.00;;;;;;5007235;28;20021;-74
2022/06/21 07:49:48;;;;;;;8.25;2.47;;;19.20;62.60;;;;;;5008043;28;20022;-75
2022/06/21 07:52:25;;;;;;;8.15;2.20;;;19.30;63.70;;;;;;4995446;28;20072;-73
2022/06/21 07:55:00;;;;;;;7.10;2.55;;;19.40;61.90;;;;;;5008253;28;20021;-73
2022/06/21 07:57:42;;;;;;;8.73;2.03;;;19.50;61.70;;;;;;5008291;28;20099;-73
2022/06/21 08:00:17;;;;;;;7.22;2.25;;;19.60;61.30;;;;;;5007696;28;20037;-74
2022/06/21 08:09:02;;;;;;;8.10;2.10;;;19.90;60.40;;;;;;5002921;28;20535;-72
2022/06/21 08:11:36;;;;;;;6.18;2.03;;;19.70;60.00;;;;;;4994784;28;20603;-73
2022/06/21 08:14:02;;;;;;;6.90;2.63;;;19.70;60.20;;;;;;5007741;28;20159;-73
2022/06/21 08:16:45;;;;;;;5.68;1.70;;;19.80;60.10;;;;;;5008618;28;20137;-72
2022/06/21 08:19:23;;;;;;;4.07;1.27;;;19.90;60.00;;;;;;5006881;28;20196;-73
2022/06/21 08:21:58;;;;;;;5.90;1.70;;;20.10;60.20;;;;;;5005413;28;20037;-73
2022/06/21 08:25:01;;;;;;;3.15;1.10;;;20.30;59.50;;;;;;5006718;28;20092;-75
2022/06/21 08:27:35;;;;;;;6.13;1.98;;;20.50;58.70;;;;;;4903674;29;20367;-73
2022/06/21 08:30:07;;;;;;;5.38;1.58;;;20.50;58.00;;;;;;4993831;28;20044;-73
2022/06/21 08:32:43;;;;;;;4.63;1.17;;;20.50;58.30;;;;;;5007718;28;20110;-73
2022/06/21 08:35:17;;;;;;;3.92;1.35;;;20.70;58.40;;;;;;5008326;28;20018;-73
2022/06/21 08:38:07;;;;;;;9.07;1.73;;;21.00;58.10;;;;;;5008017;28;20038;-74
2022/06/21 08:40:48;;;;;;;7.03;1.33;;;21.30;57.40;;;;;;4983288;28;20515;-73
2022/06/21 08:43:14;;;;;;;6.53;2.20;;;21.50;56.40;;;;;;5008547;28;20026;-72
2022/06/21 08:46:07;;;;;;;4.57;1.55;;;21.60;54.40;;;;;;5008044;28;20028;-73
2022/06/21 08:48:45;;;;;;;11.50;2.25;;;21.60;53.40;;;;;;5007023;28;20041;-73
2022/06/21 08:51:41;;;;;;;7.43;2.00;;;21.50;53.40;;;;;;5005928;28;20499;-74
2022/06/21 08:54:28;;;;;;;4.70;1.92;;;21.40;53.90;;;;;;5008234;28;20081;-75
2022/06/21 08:57:05;;;;;;;5.43;1.48;;;21.40;54.30;;;;;;5005897;28;20069;-74
2022/06/21 08:59:31;;;;;;;5.38;1.52;;;21.30;54.40;;;;;;4989552;28;20045;-76
2022/06/21 09:02:10;;;;;;;8.90;1.83;;;21.40;54.70;;;;;;4992723;28;20026;-74
2022/06/21 09:04:55;;;;;;;6.80;1.65;;;21.60;54.20;;;;;;5010757;28;20026;-74
2022/06/21 09:08:07;;;;;;;5.03;1.70;;;21.80;53.30;;;;;;5009880;28;20037;-73
2022/06/21 09:10:39;;;;;;;5.80;1.27;;;21.90;52.60;;;;;;4980092;28;20044;-74
2022/06/21 09:13:23;;;;;;;6.03;1.38;;;22.10;52.70;;;;;;5011964;28;20100;-75
2022/06/21 09:16:06;;;;;;;3.13;0.90;;;22.10;51.10;;;;;;5011467;28;20033;-73
2022/06/21 09:18:31;;;;;;;4.68;0.90;;;22.00;50.40;;;;;;5011670;28;20038;-74
2022/06/21 09:21:25;;;;;;;3.83;1.42;;;22.10;50.00;;;;;;4994382;28;20045;-74
2022/06/21 09:24:08;;;;;;;7.53;1.80;;;22.10;50.00;;;;;;5005968;28;20485;-74
2022/06/21 09:26:42;;;;;;;7.15;1.55;;;22.20;50.50;;;;;;4993924;28;20034;-75
2022/06/21 09:29:34;;;;;;;3.08;0.90;;;22.30;49.80;;;;;;5011547;28;20054;-74
2022/06/21 09:32:17;;;;;;;2.90;0.75;;;22.30;49.80;;;;;;5003201;28;20033;-73
2022/06/21 09:35:03;;;;;;;3.03;0.90;;;22.50;52.30;;;;;;5011634;28;20046;-74
2022/06/21 09:37:40;;;;;;;3.47;1.20;;;22.70;50.90;;;;;;5011340;28;20456;-73
2022/06/21 09:40:29;;;;;;;5.25;1.30;;;23.00;52.50;;;;;;5008187;28;20044;-74
2022/06/21 09:43:15;;;;;;;3.65;1.55;;;23.10;51.70;;;;;;5011993;28;20040;-74
2022/06/21 09:45:53;;;;;;;3.58;1.25;;;23.10;49.00;;;;;;5017133;28;20029;-73
2022/06/21 09:48:30;;;;;;;2.70;0.70;;;23.20;51.20;;;;;;5010821;28;20029;-76
2022/06/21 09:51:07;;;;;;;3.80;1.35;;;23.20;53.10;;;;;;5008318;28;20322;-77
2022/06/21 09:54:08;;;;;;;3.83;0.88;;;23.30;54.00;;;;;;5008297;28;20025;-77
2022/06/21 09:56:37;;;;;;;5.20;1.70;;;23.30;54.50;;;;;;5007513;28;20091;-76
2022/06/21 09:59:17;;;;;;;6.05;2.00;;;23.40;54.50;;;;;;5007486;28;20485;-76
2022/06/21 10:01:51;;;;;;;2.78;1.02;;;23.40;50.80;;;;;;5008006;28;20106;-76
2022/06/21 10:04:32;;;;;;;7.38;1.63;;;23.50;53.30;;;;;;5006666;28;20033;-77
2022/06/21 10:07:05;;;;;;;2.70;0.85;;;23.50;51.30;;;;;;5007465;28;20117;-76
2022/06/21 10:09:46;;;;;;;5.03;1.30;;;23.50;54.10;;;;;;5007680;28;20025;-77
2022/06/21 10:12:22;;;;;;;3.58;1.08;;;23.50;50.80;;;;;;4987804;28;20227;-76
2022/06/21 10:14:50;;;;;;;2.60;0.98;;;23.50;50.80;;;;;;4989921;28;20113;-77
2022/06/21 10:17:49;;;;;;;2.88;0.95;;;23.60;52.60;;;;;;5007616;28;20026;-76
2022/06/21 10:20:27;;;;;;;5.70;1.25;;;23.70;54.50;;;;;;5007396;28;20124;-76
2022/06/21 10:23:22;;;;;;;3.05;0.60;;;23.90;51.70;;;;;;5007077;28;20168;-77
2022/06/21 10:26:33;;;;;;;1.10;0.47;;;24.10;54.10;;;;;;4989546;28;20040;-75
2022/06/21 10:29:07;;;;;;;2.65;1.02;;;24.30;54.00;;;;;;4990888;28;20087;-75
2022/06/21 10:31:45;;;;;;;1.58;0.68;;;24.60;48.60;;;;;;5008379;28;20480;-75
2022/06/21 10:34:36;;;;;;;5.15;1.00;;;24.60;50.30;;;;;;5009644;28;20532;-75
2022/06/21 10:37:36;;;;;;;3.03;0.98;;;24.60;52.20;;;;;;5009616;28;20044;-76
2022/06/21 10:40:08;;;;;;;1.95;0.50;;;24.40;52.10;;;;;;5009826;28;20440;-75
2022/06/21 10:43:21;;;;;;;3.35;0.80;;;24.30;51.20;;;;;;5009952;28;20048;-75
2022/06/21 10:45:50;;;;;;;3.70;0.73;;;24.20;53.30;;;;;;4929205;29;20110;-75
2022/06/21 10:48:28;;;;;;;3.87;0.87;;;24.10;47.30;;;;;;5001628;28;20054;-76
2022/06/21 10:51:26;;;;;;;3.67;0.93;;;24.40;53.30;;;;;;5010032;28;20080;-77
2022/06/21 10:54:03;;;;;;;2.60;0.85;;;24.60;52.30;;;;;;5010099;28;20038;-77
2022/06/21 11:02:55;;;;;;;2.75;0.80;;;25.00;48.10;;;;;;5002712;28;20076;-75
2022/06/21 11:05:20;;;;;;;4.65;1.05;;;25.10;52.20;;;;;;4992280;28;20022;-76
2022/06/21 11:08:04;;;;;;;2.45;0.57;;;25.10;46.40;;;;;;5009511;28;20034;-76
2022/06/21 11:10:36;;;;;;;5.65;0.93;;;25.30;50.10;;;;;;5009490;28;20105;-76
2022/06/21 11:13:06;;;;;;;3.30;0.60;;;25.60;52.70;;;;;;5009865;28;20109;-76
2022/06/21 11:15:45;;;;;;;4.97;0.80;;;25.70;52.30;;;;;;5009720;28;20018;-76
2022/06/21 11:18:51;;;;;;;2.47;0.70;;;25.90;46.10;;;;;;5009508;28;20037;-75
2022/06/21 11:21:25;;;;;;;2.78;0.88;;;26.10;50.80;;;;;;5006812;28;20038;-75
2022/06/21 11:23:56;;;;;;;3.35;0.85;;;26.20;49.50;;;;;;5008168;28;20030;-76
2022/06/21 11:26:49;;;;;;;6.95;0.98;;;26.00;46.60;;;;;;5008746;28;20026;-75
2022/06/21 11:29:27;;;;;;;5.38;0.73;;;25.80;42.70;;;;;;4989286;28;20023;-76
2022/06/21 11:32:01;;;;;;;3.13;0.90;;;25.80;41.90;;;;;;5004002;28;20025;-75
2022/06/21 11:34:30;;;;;;;3.15;0.60;;;25.90;42.20;;;;;;4988332;28;20708;-74
2022/06/21 11:37:24;;;;;;;5.43;1.08;;;25.90;45.20;;;;;;5006635;28;20128;-76
2022/06/21 11:40:00;;;;;;;5.53;0.98;;;25.60;42.00;;;;;;5007503;28;20034;-76
2022/06/21 11:42:38;;;;;;;1.40;0.50;;;25.40;42.30;;;;;;5007683;28;20026;-76
2022/06/21 11:45:54;;;;;;;2.25;0.65;;;25.60;44.80;;;;;;5008062;28;20025;-77
2022/06/21 11:49:12;;;;;;;3.72;1.00;;;25.90;45.30;;;;;;4947293;28;20110;-76
2022/06/21 11:52:09;;;;;;;3.55;0.98;;;26.10;45.00;;;;;;4938066;29;20437;-76
2022/06/21 11:54:52;;;;;;;2.40;0.57;;;26.50;49.20;;;;;;5003812;28;20654;-75
2022/06/21 11:57:44;;;;;;;5.10;0.80;;;26.80;45.20;;;;;;5007546;28;20049;-75
2022/06/21 12:00:18;;;;;;;4.40;0.98;;;26.90;42.00;;;;;;5009316;28;20026;-76
2022/06/21 12:02:55;;;;;;;3.63;0.75;;;26.50;41.60;;;;;;5008635;28;20088;-76
2022/06/21 12:05:40;;;;;;;2.75;0.68;;;26.20;42.60;;;;;;5015404;28;20640;-75
2022/06/21 12:08:15;;;;;;;1.92;0.63;;;25.90;44.80;;;;;;5015835;28;20088;-75
2022/06/21 12:11:08;;;;;;;3.25;0.60;;;25.90;48.80;;;;;;4995056;28;20033;-76
2022/06/21 12:13:52;;;;;;;1.67;0.55;;;26.00;51.10;;;;;;5013796;28;20048;-75
2022/06/21 12:16:27;;;;;;;2.38;0.55;;;26.00;53.00;;;;;;5009297;28;20026;-75
2022/06/21 12:19:21;;;;;;;2.20;0.60;;;26.00;47.10;;;;;;5008601;28;20045;-73
2022/06/21 12:22:10;;;;;;;1.63;0.50;;;26.10;52.60;;;;;;5007015;28;20409;-76
2022/06/21 12:24:38;;;;;;;3.92;0.82;;;26.10;46.70;;;;;;5006785;28;20048;-75
2022/06/21 12:27:10;;;;;;;4.32;0.70;;;26.10;50.40;;;;;;5009403;28;20100;-75
2022/06/21 12:29:36;;;;;;;0.90;0.40;;;26.00;50.20;;;;;;5005788;28;20124;-75
2022/06/21 12:32:05;;;;;;;1.92;0.80;;;25.80;46.10;;;;;;5008833;28;20118;-76
2022/06/21 12:34:42;;;;;;;3.85;0.70;;;25.60;48.50;;;;;;5008035;28;20120;-76
2022/06/21 12:37:20;;;;;;;3.83;0.60;;;25.60;41.20;;;;;;5009522;28;20026;-77
2022/06/21 12:39:59;;;;;;;2.75;0.80;;;25.60;39.80;;;;;;5007933;28;21248;-76
2022/06/21 12:42:53;;;;;;;1.45;0.68;;;25.60;40.90;;;;;;5008643;28;20026;-76
2022/06/21 12:45:19;;;;;;;3.00;0.60;;;25.60;52.90;;;;;;5006616;28;20368;-75
2022/06/21 12:47:59;;;;;;;2.72;0.80;;;25.60;46.00;;;;;;5008100;28;20083;-75
2022/06/21 12:51:06;;;;;;;2.20;1.08;;;25.60;50.70;;;;;;5001820;28;20034;-76
2022/06/21 12:53:55;;;;;;;2.83;0.82;;;25.70;42.90;;;;;;5007609;28;20029;-76
2022/06/21 12:57:06;;;;;;;3.20;0.60;;;25.90;47.80;;;;;;5008007;28;20022;-76
2022/06/21 12:59:40;;;;;;;3.78;0.98;;;26.00;44.80;;;;;;5006285;28;20078;-76
2022/06/21 13:02:12;;;;;;;3.28;0.80;;;26.20;44.20;;;;;;5006862;28;20109;-75
2022/06/21 13:04:51;;;;;;;4.18;0.70;;;26.60;49.60;;;;;;5008759;28;20029;-76
2022/06/21 13:07:35;;;;;;;3.28;0.60;;;26.50;47.10;;;;;;4991739;28;20041;-76
2022/06/21 13:10:41;;;;;;;3.00;0.50;;;26.30;46.50;;;;;;5009036;28;20097;-76
2022/06/21 13:13:28;;;;;;;2.95;0.60;;;26.20;48.70;;;;;;4972032;28;20037;-73
2022/06/21 13:16:04;;;;;;;1.98;0.60;;;26.10;50.10;;;;;;5003846;28;20430;-75
2022/06/21 13:18:49;;;;;;;5.13;0.90;;;26.00;52.90;;;;;;4988833;28;20092;-75
2022/06/21 13:21:36;;;;;;;3.15;0.70;;;25.90;53.00;;;;;;5004422;28;20556;-74
2022/06/21 13:24:26;;;;;;;5.32;0.77;;;25.80;51.40;;;;;;5008211;28;20054;-74
2022/06/21 13:27:00;;;;;;;2.45;0.80;;;25.70;51.20;;;;;;4996949;28;20034;-75
2022/06/21 13:30:00;;;;;;;3.03;0.60;;;25.70;53.80;;;;;;5006163;28;20034;-75
2022/06/21 13:32:39;;;;;;;3.60;0.73;;;25.70;51.20;;;;;;5006374;28;20504;-78
2022/06/21 13:35:32;;;;;;;6.28;1.05;;;25.60;50.10;;;;;;5009592;28;20026;-76
2022/06/21 13:38:07;;;;;;;2.65;0.60;;;25.50;49.00;;;;;;5005941;28;20093;-79
2022/06/21 13:40:46;;;;;;;2.92;0.50;;;25.50;47.20;;;;;;5007395;28;20027;-83
2022/06/21 13:43:29;;;;;;;5.53;0.60;;;25.40;48.80;;;;;;5012660;28;20704;-81
2022/06/21 13:46:14;;;;;;;3.17;0.80;;;25.40;42.20;;;;;;5012115;28;20026;-81
2022/06/21 13:48:43;;;;;;;4.90;0.82;;;25.40;45.10;;;;;;5018398;28;20534;-81
2022/06/21 13:51:15;;;;;;;1.58;0.60;;;25.50;47.90;;;;;;5013363;28;20018;-78